Time;durP1;ratioP1;P1;durP2;ratioP2;P2;SDS_P1;SDS_P2;PMS_P1;PMS_P2;Temp;Humidity;BMP_temperature;BMP_pressure;BME280_temperature;BME280_humidity;BME280_pressure;Samples;Min_cycle;Max_cycle;Signal;HPM_P1;HPM_P2
2024/04/07 00:04:27;;;;;;;18.45;15.18;;;24.70;52.40;;;;;;10234729;28;20047;-56
2024/04/07 00:09:30;;;;;;;17.88;15.70;;;24.80;52.40;;;;;;10232158;28;20051;-59
2024/04/07 00:14:44;;;;;;;18.52;14.98;;;24.90;52.10;;;;;;10229586;28;20499;-52
2024/04/07 00:19:47;;;;;;;19.63;15.10;;;24.90;52.00;;;;;;10228820;28;20100;-52
2024/04/07 00:24:50;;;;;;;17.25;15.00;;;24.80;52.00;;;;;;10229952;28;20054;-53
2024/04/07 00:29:52;;;;;;;19.00;15.43;;;24.90;51.80;;;;;;10238637;28;20062;-57
2024/04/07 00:34:53;;;;;;;18.75;15.32;;;24.90;51.70;;;;;;10237154;28;20719;-49
2024/04/07 00:39:56;;;;;;;17.60;15.23;;;25.10;51.50;;;;;;10234900;28;20081;-52
2024/04/07 00:44:58;;;;;;;17.10;15.30;;;24.90;51.50;;;;;;10232683;28;20047;-53
2024/04/07 00:49:59;;;;;;;17.92;15.38;;;24.90;51.70;;;;;;10234660;28;20047;-51
2024/04/07 00:55:02;;;;;;;17.77;15.25;;;24.90;51.80;;;;;;10232072;28;20051;-55
2024/04/07 01:00:05;;;;;;;17.33;15.05;;;24.90;51.60;;;;;;10227864;28;20500;-52
2024/04/07 01:05:07;;;;;;;18.75;15.60;;;24.90;51.70;;;;;;10229844;28;20058;-53
2024/04/07 01:10:10;;;;;;;16.90;15.00;;;24.90;51.70;;;;;;10230294;28;20052;-54
2024/04/07 01:15:12;;;;;;;17.88;15.10;;;24.90;51.60;;;;;;10234667;28;20071;-56
2024/04/07 01:20:15;;;;;;;18.42;15.30;;;24.90;51.50;;;;;;10231777;28;20043;-58
2024/04/07 01:25:18;;;;;;;18.08;15.23;;;24.90;52.40;;;;;;10235535;28;20055;-56
2024/04/07 01:30:20;;;;;;;16.70;14.65;;;24.90;51.70;;;;;;10236610;28;20050;-57
2024/04/07 01:35:21;;;;;;;17.70;14.52;;;24.80;51.70;;;;;;10233359;28;20048;-57
2024/04/07 01:40:24;;;;;;;18.08;15.52;;;24.70;51.90;;;;;;10253363;28;20047;-58
2024/04/07 01:45:26;;;;;;;17.83;15.20;;;24.80;51.70;;;;;;10245249;28;20051;-57
2024/04/07 01:50:28;;;;;;;17.63;15.43;;;24.70;51.80;;;;;;10246607;28;20050;-58
2024/04/07 01:55:30;;;;;;;17.27;15.10;;;24.70;51.80;;;;;;10247259;28;20142;-58
2024/04/07 02:00:33;;;;;;;16.35;14.27;;;24.80;51.60;;;;;;10251892;28;20047;-58
2024/04/07 02:05:34;;;;;;;16.67;13.98;;;24.80;51.60;;;;;;10269124;28;20043;-56
2024/04/07 02:10:37;;;;;;;17.48;14.52;;;24.80;51.60;;;;;;10297023;28;20058;-55
2024/04/07 02:15:39;;;;;;;17.13;14.60;;;24.80;51.40;;;;;;10291447;28;20057;-58
2024/04/07 02:20:40;;;;;;;16.33;14.02;;;24.80;51.50;;;;;;10289657;28;20057;-58
2024/04/07 02:25:43;;;;;;;16.13;13.60;;;24.70;51.60;;;;;;10285217;28;20049;-57
2024/04/07 02:30:46;;;;;;;17.65;13.95;;;24.80;51.50;;;;;;10292347;28;20049;-57
2024/04/07 02:35:47;;;;;;;16.15;13.38;;;24.70;51.70;;;;;;10290234;28;20043;-55
2024/04/07 02:40:50;;;;;;;16.42;14.50;;;24.80;51.40;;;;;;10292499;28;20042;-57
2024/04/07 02:51:16;;;;;;;17.17;13.95;;;24.70;51.60;;;;;;10246157;28;20047;-58
2024/04/07 02:56:20;;;;;;;15.48;13.30;;;24.60;51.80;;;;;;10290412;28;20102;-56
2024/04/07 03:01:22;;;;;;;15.05;13.45;;;24.70;51.70;;;;;;10291007;28;20149;-56
2024/04/07 03:06:23;;;;;;;14.48;12.98;;;24.70;51.70;;;;;;10292921;28;20049;-58
2024/04/07 03:11:26;;;;;;;14.90;13.25;;;24.20;52.70;;;;;;10293281;28;20550;-59
2024/04/07 03:16:28;;;;;;;14.23;12.73;;;23.80;54.00;;;;;;10288834;28;20134;-57
2024/04/07 03:21:29;;;;;;;14.10;12.57;;;23.50;54.50;;;;;;10291600;28;20130;-56
2024/04/07 03:26:32;;;;;;;15.25;12.90;;;23.50;54.80;;;;;;10291048;28;20138;-58
2024/04/07 03:31:34;;;;;;;14.20;12.48;;;23.50;55.00;;;;;;10286453;28;20407;-57
2024/04/07 03:36:35;;;;;;;13.40;11.65;;;23.40;55.00;;;;;;10284045;28;20521;-57
2024/04/07 03:41:38;;;;;;;14.43;12.73;;;23.50;55.00;;;;;;10289405;28;20043;-58
2024/04/07 03:46:40;;;;;;;13.57;11.98;;;23.50;55.00;;;;;;10297158;28;20050;-57
2024/04/07 03:51:42;;;;;;;13.20;11.70;;;23.60;54.90;;;;;;10274661;28;20046;-57
2024/04/07 03:56:44;;;;;;;13.75;11.50;;;23.80;54.70;;;;;;10279653;28;20422;-57
2024/04/07 04:01:47;;;;;;;13.73;12.23;;;24.50;53.20;;;;;;10278453;28;20051;-57
2024/04/07 04:06:49;;;;;;;12.80;11.48;;;24.80;52.40;;;;;;10275478;28;20145;-53
2024/04/07 04:11:52;;;;;;;13.73;11.90;;;24.90;52.40;;;;;;10276456;28;20360;-55
2024/04/07 04:16:53;;;;;;;12.00;10.80;;;24.80;52.50;;;;;;10282333;28;20043;-54
2024/04/07 04:21:55;;;;;;;13.32;11.25;;;24.70;52.90;;;;;;10275957;28;20515;-56
2024/04/07 04:26:58;;;;;;;14.57;11.45;;;24.70;53.00;;;;;;10271560;28;20550;-56
2024/04/07 04:32:00;;;;;;;12.63;11.27;;;24.80;53.00;;;;;;10250758;28;20082;-55
2024/04/07 04:37:01;;;;;;;12.30;11.00;;;25.00;52.50;;;;;;10236488;28;20068;-55
2024/04/07 04:42:05;;;;;;;11.85;10.65;;;25.20;52.00;;;;;;10240740;28;20047;-57
2024/04/07 04:47:08;;;;;;;12.13;10.93;;;25.30;51.80;;;;;;10243058;28;20154;-53
2024/04/07 04:52:10;;;;;;;10.95;9.85;;;25.30;52.00;;;;;;10247903;28;20066;-58
2024/04/07 04:57:13;;;;;;;11.90;10.60;;;25.30;52.00;;;;;;10240447;28;20139;-54
2024/04/07 05:02:14;;;;;;;11.27;9.65;;;25.30;52.20;;;;;;10236474;28;20095;-57
2024/04/07 05:07:16;;;;;;;11.30;10.10;;;25.30;52.10;;;;;;10230907;28;20070;-57
2024/04/07 05:12:19;;;;;;;11.30;10.10;;;25.30;52.20;;;;;;10239652;28;20050;-57
2024/04/07 05:17:20;;;;;;;10.27;9.15;;;25.40;52.00;;;;;;10237792;28;20048;-57
2024/04/07 05:22:22;;;;;;;10.27;9.18;;;25.20;52.50;;;;;;10234212;28;20057;-56
2024/04/07 05:27:25;;;;;;;10.07;9.05;;;25.20;52.90;;;;;;10236450;28;20051;-57
2024/04/07 05:32:27;;;;;;;10.10;9.10;;;25.30;52.90;;;;;;10238321;28;20061;-54
2024/04/07 05:37:28;;;;;;;10.68;9.07;;;25.10;53.20;;;;;;10242786;28;20051;-56
2024/04/07 05:42:31;;;;;;;9.35;8.35;;;25.00;53.50;;;;;;10242085;28;20491;-58
2024/04/07 05:47:33;;;;;;;9.93;8.93;;;25.20;53.50;;;;;;10251189;28;20658;-58
2024/04/07 05:52:34;;;;;;;9.70;8.70;;;25.20;53.20;;;;;;10245616;28;20134;-58
2024/04/07 05:57:38;;;;;;;10.07;8.50;;;25.30;53.30;;;;;;10248013;28;20048;-58
2024/04/07 06:02:39;;;;;;;9.32;8.35;;;25.40;53.00;;;;;;10244830;28;20048;-52
2024/04/07 06:07:41;;;;;;;8.77;7.50;;;25.40;52.70;;;;;;10249203;28;20195;-58
2024/04/07 06:12:44;;;;;;;7.95;6.68;;;25.40;52.80;;;;;;10247959;28;20058;-56
2024/04/07 06:17:46;;;;;;;8.73;7.80;;;25.50;52.70;;;;;;10241267;28;20054;-56
2024/04/07 06:22:51;;;;;;;12.23;7.00;;;25.50;52.70;;;;;;10236801;28;20133;-54
2024/04/07 06:27:54;;;;;;;6.63;5.25;;;25.60;52.50;;;;;;10249786;28;20059;-55
2024/04/07 06:32:56;;;;;;;6.90;4.35;;;25.50;51.10;;;;;;10240419;28;20061;-57
2024/04/07 06:37:59;;;;;;;6.57;3.60;;;25.40;50.80;;;;;;10247727;28;20055;-56
2024/04/07 06:43:02;;;;;;;4.63;2.78;;;25.40;50.60;;;;;;10245826;28;20539;-59
2024/04/07 06:48:04;;;;;;;4.43;1.80;;;25.40;50.00;;;;;;10259695;28;20486;-51
2024/04/07 06:53:05;;;;;;;4.65;1.10;;;25.60;46.30;;;;;;10243024;28;20122;-51
2024/04/07 06:58:08;;;;;;;6.45;1.52;;;25.20;46.00;;;;;;10243503;28;20160;-57
2024/04/07 07:03:10;;;;;;;4.93;1.40;;;24.80;47.10;;;;;;10237322;28;20150;-54
2024/04/07 07:08:11;;;;;;;3.97;1.52;;;24.90;46.80;;;;;;10241729;28;20055;-53
2024/04/07 07:13:14;;;;;;;5.82;1.60;;;25.10;47.30;;;;;;10245417;28;20051;-51
2024/04/07 07:18:16;;;;;;;7.63;1.73;;;25.30;47.90;;;;;;10241899;28;20129;-54
2024/04/07 07:23:17;;;;;;;2.75;1.00;;;25.40;48.20;;;;;;10240279;28;20059;-55
2024/04/07 07:28:21;;;;;;;3.05;1.38;;;25.00;44.50;;;;;;10246037;28;20057;-55
2024/04/07 07:33:22;;;;;;;1.70;0.80;;;24.80;44.40;;;;;;10242955;28;20039;-55
2024/04/07 07:38:24;;;;;;;1.45;0.70;;;24.40;44.20;;;;;;10243564;28;20051;-56
2024/04/07 07:43:27;;;;;;;1.83;0.75;;;24.20;44.70;;;;;;10220993;28;20050;-57
2024/04/07 07:48:29;;;;;;;5.05;0.90;;;24.50;45.00;;;;;;10248052;28;20043;-57
2024/04/07 07:53:31;;;;;;;1.83;0.65;;;24.70;46.00;;;;;;10250689;28;20051;-53
2024/04/07 07:58:35;;;;;;;3.90;0.80;;;24.90;46.20;;;;;;10245428;28;20046;-58
2024/04/07 08:03:37;;;;;;;6.78;0.80;;;25.00;47.30;;;;;;10243932;28;20063;-57
2024/04/07 08:08:38;;;;;;;2.50;1.00;;;25.20;47.90;;;;;;10242372;28;20130;-59
2024/04/07 08:13:41;;;;;;;1.98;0.85;;;25.10;48.80;;;;;;10234174;28;20055;-56
2024/04/07 08:18:43;;;;;;;4.03;1.20;;;25.30;49.20;;;;;;10248033;28;20056;-58
2024/04/07 08:23:44;;;;;;;3.92;1.30;;;25.30;49.80;;;;;;10239297;28;20054;-56
2024/04/07 08:28:47;;;;;;;3.00;1.20;;;25.20;50.00;;;;;;10243534;28;20051;-57
2024/04/07 08:33:49;;;;;;;8.25;1.42;;;25.30;50.50;;;;;;10242686;28;20110;-58
2024/04/07 08:38:51;;;;;;;2.67;1.20;;;25.40;50.70;;;;;;10241545;28;20053;-58
2024/04/07 08:43:54;;;;;;;3.10;1.17;;;25.40;50.70;;;;;;10244096;28;20053;-57
2024/04/07 08:48:56;;;;;;;4.82;1.23;;;25.40;51.00;;;;;;10240850;28;20447;-58
2024/04/07 08:53:58;;;;;;;2.90;1.13;;;25.50;50.60;;;;;;10235586;28;20043;-54
2024/04/07 08:59:02;;;;;;;5.72;1.35;;;25.30;50.90;;;;;;10242295;29;20520;-57
2024/04/07 09:04:04;;;;;;;4.93;1.13;;;25.30;51.00;;;;;;10237544;28;20047;-57
2024/04/07 09:09:06;;;;;;;2.42;0.90;;;25.20;50.50;;;;;;10243110;28;20138;-56
2024/04/07 09:14:09;;;;;;;4.93;1.08;;;25.10;50.30;;;;;;10245616;28;20063;-56
2024/04/07 09:19:11;;;;;;;2.55;1.10;;;25.10;50.00;;;;;;10245796;28;20043;-57
2024/04/07 09:24:13;;;;;;;3.15;0.90;;;25.10;49.90;;;;;;10242286;28;20056;-56
2024/04/07 09:29:16;;;;;;;3.97;0.88;;;24.90;49.60;;;;;;10252253;28;20122;-56
2024/04/07 09:34:17;;;;;;;3.03;1.00;;;24.90;49.50;;;;;;10249716;28;20086;-56
2024/04/07 09:39:19;;;;;;;3.00;0.80;;;25.00;49.40;;;;;;10254150;28;20051;-52
2024/04/07 09:44:23;;;;;;;4.43;1.00;;;25.20;48.20;;;;;;10249665;28;20053;-58
2024/04/07 09:49:25;;;;;;;4.72;1.23;;;25.50;47.10;;;;;;10248191;28;20122;-58
2024/04/07 09:54:30;;;;;;;5.22;1.13;;;25.60;46.70;;;;;;10245218;28;20047;-58
2024/04/07 09:59:33;;;;;;;12.73;4.45;;;25.60;46.20;;;;;;10240292;28;20067;-58
2024/04/07 10:04:34;;;;;;;6.43;4.82;;;25.60;45.00;;;;;;10248435;28;20154;-58
2024/04/07 10:09:36;;;;;;;6.78;3.25;;;25.40;45.10;;;;;;10243708;28;20051;-58
2024/04/07 10:14:39;;;;;;;5.00;2.72;;;25.40;44.40;;;;;;10241747;28;20137;-57
2024/04/07 10:19:43;;;;;;;5.03;2.20;;;25.20;44.70;;;;;;10245326;28;20051;-56
2024/04/07 10:24:48;;;;;;;4.60;1.85;;;25.10;44.80;;;;;;10248840;28;20126;-55
2024/04/07 10:29:54;;;;;;;2.60;1.35;;;25.30;44.80;;;;;;10242569;28;20130;-55
2024/04/07 10:34:59;;;;;;;3.13;1.50;;;25.20;44.30;;;;;;10245016;28;20055;-58
2024/04/07 10:40:02;;;;;;;3.58;1.27;;;25.10;44.80;;;;;;10239921;28;20047;-56
2024/04/07 10:45:06;;;;;;;2.38;1.10;;;25.10;44.90;;;;;;10243376;28;20059;-56
2024/04/07 10:50:08;;;;;;;4.32;1.20;;;25.30;43.70;;;;;;10236939;28;20057;-54
2024/04/07 10:55:10;;;;;;;5.55;1.10;;;25.20;44.40;;;;;;10234075;28;20055;-55
2024/04/07 11:00:14;;;;;;;5.97;1.30;;;25.20;44.00;;;;;;10230797;28;20522;-53
2024/04/07 11:05:16;;;;;;;4.18;1.20;;;25.10;44.40;;;;;;10236880;28;20673;-55
2024/04/07 11:10:17;;;;;;;4.32;1.25;;;25.10;44.40;;;;;;10231845;28;20126;-55
2024/04/07 11:15:21;;;;;;;5.85;1.20;;;25.00;44.70;;;;;;10231909;29;20062;-55
2024/04/07 11:20:23;;;;;;;1.80;0.85;;;25.30;43.90;;;;;;10228224;28;20139;-53
2024/04/07 11:25:25;;;;;;;5.53;1.20;;;25.50;43.00;;;;;;10237192;28;20047;-49
2024/04/07 11:30:34;;;;;;;3.35;1.20;;;25.10;43.60;;;;;;10223453;28;20126;-54
2024/04/07 11:35:38;;;;;;;3.00;1.33;;;25.30;43.60;;;;;;10231179;28;20099;-51
2024/04/07 11:40:40;;;;;;;3.38;1.40;;;25.30;44.30;;;;;;10231187;29;20059;-54
2024/04/07 11:45:43;;;;;;;2.83;1.40;;;25.30;44.70;;;;;;10230828;29;20055;-50
2024/04/07 11:50:45;;;;;;;6.65;1.90;;;25.30;45.00;;;;;;10226578;29;20078;-53
2024/04/07 11:55:54;;;;;;;;;;;25.30;45.60;;;;;;10600432;27;20382;-57
2024/04/07 12:00:57;;;;;;;2.85;1.35;;;25.00;46.00;;;;;;10528709;28;20038;-57
2024/04/07 12:05:59;;;;;;;6.35;1.50;;;25.10;45.50;;;;;;10523149;28;20151;-57
2024/04/07 12:11:02;;;;;;;2.55;1.30;;;25.40;44.80;;;;;;10510817;28;20800;-55
2024/04/07 12:16:06;;;;;;;4.30;1.20;;;25.40;45.00;;;;;;10517622;28;20078;-57
2024/04/07 12:21:07;;;;;;;3.78;1.35;;;25.40;44.30;;;;;;10519138;28;20063;-53
2024/04/07 12:26:10;;;;;;;3.20;1.33;;;25.40;44.20;;;;;;10513509;28;20048;-57
2024/04/07 12:31:14;;;;;;;5.78;1.67;;;25.80;43.60;;;;;;10507675;28;20068;-57
2024/04/07 12:36:16;;;;;;;6.35;2.22;;;25.70;44.00;;;;;;10504438;28;20051;-56
2024/04/07 12:41:19;;;;;;;5.10;2.25;;;25.70;44.20;;;;;;10506235;28;20048;-55
2024/04/07 12:46:20;;;;;;;5.05;1.90;;;25.60;44.30;;;;;;10512489;28;20055;-57
2024/04/07 12:51:22;;;;;;;4.90;1.63;;;25.70;43.70;;;;;;10521575;28;20447;-52
2024/04/07 12:56:25;;;;;;;3.58;1.50;;;25.90;43.10;;;;;;10512785;28;20048;-57
2024/04/07 13:01:27;;;;;;;3.58;1.40;;;26.00;42.60;;;;;;10501972;28;20079;-54
2024/04/07 13:06:28;;;;;;;2.83;1.42;;;26.00;41.50;;;;;;10482157;28;20072;-53
2024/04/07 13:11:31;;;;;;;2.47;1.33;;;26.00;41.70;;;;;;10488754;28;20054;-57
2024/04/07 13:16:33;;;;;;;4.20;1.10;;;26.20;41.50;;;;;;10489037;28;20049;-52
2024/04/07 13:21:36;;;;;;;3.30;1.10;;;26.20;40.60;;;;;;10489830;28;20114;-52
2024/04/07 13:26:39;;;;;;;4.05;1.20;;;26.60;40.70;;;;;;10482484;28;20124;-55
2024/04/07 13:31:41;;;;;;;4.47;1.10;;;26.70;40.60;;;;;;10496806;28;20055;-55
2024/04/07 13:36:42;;;;;;;5.00;0.88;;;26.90;41.40;;;;;;10491262;28;20564;-54
2024/04/07 13:41:45;;;;;;;8.38;1.15;;;26.90;42.10;;;;;;10496810;28;20120;-55
2024/04/07 13:46:49;;;;;;;6.88;0.90;;;27.00;42.10;;;;;;10489541;28;20462;-54
2024/04/07 13:51:51;;;;;;;5.25;0.98;;;27.10;41.20;;;;;;10487857;28;20056;-54
2024/04/07 13:56:54;;;;;;;5.07;0.98;;;27.00;39.50;;;;;;10490553;28;20419;-59
2024/04/07 14:01:56;;;;;;;1.67;0.65;;;26.90;37.90;;;;;;10488808;28;20079;-59
2024/04/07 14:06:57;;;;;;;1.92;0.75;;;26.80;36.90;;;;;;10487414;28;20489;-59
2024/04/07 14:12:01;;;;;;;3.20;0.70;;;26.70;36.70;;;;;;10489145;28;20590;-56
2024/04/07 14:17:03;;;;;;;2.20;0.80;;;26.70;36.70;;;;;;10497838;28;20105;-59
2024/04/07 14:22:04;;;;;;;3.70;0.90;;;26.80;37.20;;;;;;10493518;28;20442;-58
2024/04/07 14:27:10;;;;;;;5.13;0.90;;;26.90;37.80;;;;;;10488140;28;20481;-59
2024/04/07 14:32:11;;;;;;;2.63;0.80;;;27.00;38.20;;;;;;10485898;28;20041;-58
2024/04/07 14:37:13;;;;;;;3.65;1.17;;;27.10;38.20;;;;;;10482984;28;20047;-59
2024/04/07 14:42:21;;;;;;;5.00;0.70;;;27.00;38.10;;;;;;10490459;28;20140;-59
2024/04/07 14:47:23;;;;;;;2.83;0.80;;;27.10;38.50;;;;;;10489313;28;20056;-58
2024/04/07 14:52:24;;;;;;;2.30;0.73;;;27.20;38.30;;;;;;10492569;28;20415;-58
2024/04/07 14:57:27;;;;;;;1.67;0.80;;;27.20;37.70;;;;;;10485977;28;20067;-58
2024/04/07 15:02:29;;;;;;;3.00;0.90;;;27.30;37.60;;;;;;10487260;28;20049;-58
2024/04/07 15:07:30;;;;;;;2.60;0.85;;;27.30;36.90;;;;;;10477061;28;20044;-55
2024/04/07 15:12:34;;;;;;;1.15;0.63;;;27.40;36.60;;;;;;10487252;28;20044;-56
2024/04/07 15:17:36;;;;;;;1.35;0.90;;;27.40;36.90;;;;;;10481895;28;20680;-59
2024/04/07 15:22:37;;;;;;;1.38;0.80;;;27.50;35.70;;;;;;10488107;28;20131;-59
2024/04/07 15:27:40;;;;;;;2.83;1.00;;;27.60;35.00;;;;;;10491446;28;20047;-59
2024/04/07 15:32:42;;;;;;;2.70;0.80;;;27.50;34.70;;;;;;10490089;28;20054;-57
2024/04/07 15:37:43;;;;;;;1.30;0.85;;;27.60;34.50;;;;;;10493163;28;20052;-59
2024/04/07 15:42:46;;;;;;;2.45;0.88;;;27.60;34.50;;;;;;10483970;28;20044;-58
2024/04/07 15:47:48;;;;;;;1.13;0.73;;;27.80;34.00;;;;;;10484172;28;20496;-59
2024/04/07 15:52:50;;;;;;;2.15;1.00;;;27.70;33.40;;;;;;10482271;28;20099;-59
2024/04/07 15:57:53;;;;;;;2.55;0.80;;;27.70;33.80;;;;;;10491159;28;20048;-57
2024/04/07 16:02:55;;;;;;;9.18;0.90;;;27.70;34.20;;;;;;10486299;28;20047;-58
2024/04/07 16:07:57;;;;;;;2.42;1.15;;;27.80;34.70;;;;;;10481663;28;20551;-53
2024/04/07 16:13:00;;;;;;;2.85;1.02;;;28.00;34.70;;;;;;10479710;28;20499;-55
2024/04/07 16:18:01;;;;;;;1.90;0.90;;;28.00;35.00;;;;;;10483486;28;20068;-50
2024/04/07 16:23:04;;;;;;;4.00;1.10;;;28.00;35.20;;;;;;10488977;28;20124;-54
2024/04/07 16:28:07;;;;;;;7.07;1.50;;;28.00;36.10;;;;;;10484435;28;20455;-52
2024/04/07 16:33:08;;;;;;;4.22;1.00;;;27.90;36.80;;;;;;10483393;28;20051;-51
2024/04/07 16:38:10;;;;;;;1.25;0.90;;;27.80;34.90;;;;;;10477478;28;20055;-56
2024/04/07 16:43:13;;;;;;;1.48;0.90;;;27.70;34.40;;;;;;10491637;28;20139;-55
2024/04/07 16:48:16;;;;;;;1.65;0.80;;;27.60;33.60;;;;;;10491400;28;20066;-53
2024/04/07 16:53:18;;;;;;;6.35;0.90;;;27.60;31.80;;;;;;10490281;28;20167;-57
2024/04/07 16:58:21;;;;;;;5.60;0.90;;;27.70;32.10;;;;;;10494274;28;20068;-52
2024/04/07 17:03:23;;;;;;;4.95;0.90;;;27.70;32.00;;;;;;10489288;28;20041;-56
2024/04/07 17:08:26;;;;;;;1.60;1.10;;;27.60;32.10;;;;;;10485805;28;20063;-59
2024/04/07 17:13:31;;;;;;;5.10;1.02;;;27.50;32.00;;;;;;10481865;28;20049;-55
2024/04/07 17:18:33;;;;;;;3.10;1.27;;;27.50;33.30;;;;;;10488034;28;20051;-55
2024/04/07 17:23:35;;;;;;;3.35;1.25;;;27.50;32.60;;;;;;10475217;28;20041;-54
2024/04/07 17:28:38;;;;;;;2.90;1.20;;;27.50;33.10;;;;;;10488928;28;20063;-53
2024/04/07 17:33:40;;;;;;;4.97;1.27;;;27.50;34.60;;;;;;10475214;28;20076;-54
2024/04/07 17:38:42;;;;;;;2.58;1.75;;;27.40;36.20;;;;;;10478242;28;20481;-54
2024/04/07 17:43:45;;;;;;;2.38;1.38;;;27.30;37.40;;;;;;10476438;28;20131;-54
2024/04/07 17:48:46;;;;;;;2.88;1.65;;;27.20;37.90;;;;;;10477573;28;21810;-53
2024/04/07 17:53:50;;;;;;;3.97;1.20;;;27.10;38.50;;;;;;10473227;28;20098;-55
2024/04/07 17:58:54;;;;;;;4.68;1.30;;;27.00;39.00;;;;;;10475220;28;20076;-56
2024/04/07 18:03:56;;;;;;;6.32;1.45;;;27.00;39.40;;;;;;10478626;28;20458;-52
2024/04/07 18:08:59;;;;;;;4.00;1.75;;;27.00;39.60;;;;;;10470752;28;20044;-53
2024/04/07 18:14:02;;;;;;;5.95;1.98;;;26.90;40.10;;;;;;10479851;28;20128;-53
2024/04/07 18:19:04;;;;;;;7.57;2.10;;;26.80;40.60;;;;;;10471514;28;20072;-56
2024/04/07 18:24:05;;;;;;;5.38;2.13;;;26.50;41.40;;;;;;10476016;28;20420;-56
2024/04/07 18:29:09;;;;;;;3.88;1.88;;;26.50;41.50;;;;;;10465807;28;20766;-56
2024/04/07 18:34:11;;;;;;;4.47;2.10;;;26.60;42.00;;;;;;10472461;28;20118;-54
2024/04/07 18:39:12;;;;;;;11.02;2.10;;;26.40;42.60;;;;;;10477304;28;20071;-52
2024/04/07 18:44:15;;;;;;;3.83;1.92;;;26.40;43.20;;;;;;10478649;28;20078;-52
2024/04/07 18:49:17;;;;;;;3.58;2.13;;;26.50;43.40;;;;;;10477843;28;20086;-54
2024/04/07 18:54:19;;;;;;;5.53;2.22;;;26.40;43.50;;;;;;10475230;28;20133;-56
2024/04/07 18:59:22;;;;;;;3.63;2.05;;;26.20;43.50;;;;;;10466996;28;20654;-57
2024/04/07 19:04:23;;;;;;;3.25;2.22;;;26.20;43.80;;;;;;10469754;28;20059;-57
2024/04/07 19:09:25;;;;;;;3.85;2.17;;;26.10;44.00;;;;;;10464159;28;20424;-55
2024/04/07 19:14:28;;;;;;;4.40;2.10;;;26.10;44.10;;;;;;10474568;28;20171;-58
2024/04/07 19:19:30;;;;;;;6.93;2.60;;;26.20;44.00;;;;;;10468749;28;20151;-56
2024/04/07 19:24:32;;;;;;;6.60;2.60;;;26.30;44.20;;;;;;10480064;28;20066;-56
2024/04/07 19:29:35;;;;;;;4.30;2.70;;;26.00;44.70;;;;;;10470537;28;20040;-58
2024/04/07 19:34:36;;;;;;;4.88;2.70;;;26.10;44.90;;;;;;10474975;28;20148;-58
2024/04/07 19:39:38;;;;;;;3.83;2.95;;;26.10;45.10;;;;;;10471924;28;20084;-53
2024/04/07 19:44:42;;;;;;;4.97;2.95;;;26.20;44.80;;;;;;10475836;28;20045;-51
2024/04/07 19:49:43;;;;;;;4.75;3.03;;;26.30;45.00;;;;;;10474909;28;20064;-56
2024/04/07 19:54:45;;;;;;;5.57;3.20;;;26.40;44.70;;;;;;10472031;28;20132;-59
2024/04/07 19:59:48;;;;;;;5.97;3.45;;;26.60;44.50;;;;;;10478615;28;20067;-53
2024/04/07 20:04:51;;;;;;;4.97;3.03;;;26.60;44.40;;;;;;10476271;28;20135;-55
2024/04/07 20:09:52;;;;;;;5.72;3.08;;;26.80;44.30;;;;;;10465586;28;20106;-53
2024/04/07 20:14:57;;;;;;;4.13;3.15;;;26.90;44.10;;;;;;10479663;28;20036;-52
2024/04/07 20:19:59;;;;;;;3.85;3.05;;;27.10;43.90;;;;;;10476669;28;20102;-58
2024/04/07 20:25:01;;;;;;;4.15;3.10;;;27.10;43.90;;;;;;10480588;28;20082;-52
2024/04/07 20:30:05;;;;;;;5.50;3.58;;;27.20;43.70;;;;;;10489342;28;20099;-53
2024/04/07 20:35:07;;;;;;;5.15;2.92;;;27.30;43.50;;;;;;10484991;28;20064;-55
2024/04/07 20:40:09;;;;;;;5.45;3.40;;;27.20;43.90;;;;;;10490832;28;20044;-56
2024/04/07 20:45:12;;;;;;;4.72;3.30;;;27.20;44.20;;;;;;10479626;28;20045;-51
2024/04/07 20:50:14;;;;;;;8.35;4.50;;;27.30;44.40;;;;;;10478527;28;20132;-57
2024/04/07 20:55:16;;;;;;;6.03;4.63;;;27.20;44.70;;;;;;10458760;28;20139;-57
2024/04/07 21:00:19;;;;;;;7.93;4.57;;;27.10;45.00;;;;;;10435969;28;20045;-51
2024/04/07 21:05:20;;;;;;;8.07;3.85;;;26.90;45.10;;;;;;10430795;28;20044;-56
2024/04/07 21:10:22;;;;;;;5.43;3.67;;;26.90;45.00;;;;;;10433794;28;20044;-58
2024/04/07 21:15:25;;;;;;;5.72;4.07;;;26.90;45.00;;;;;;10430978;28;20077;-58
2024/04/07 21:20:27;;;;;;;4.13;3.30;;;26.80;44.90;;;;;;10436217;28;20136;-57
2024/04/07 21:25:29;;;;;;;3.22;2.75;;;26.80;44.60;;;;;;10429965;28;20048;-57
2024/04/07 21:30:32;;;;;;;4.28;2.70;;;26.70;44.70;;;;;;10437260;28;20521;-55
2024/04/07 21:35:34;;;;;;;3.55;2.42;;;26.80;44.50;;;;;;10434728;28;20408;-57
2024/04/07 21:40:36;;;;;;;6.43;3.00;;;26.80;44.30;;;;;;10438524;28;20051;-56
2024/04/07 21:45:39;;;;;;;4.72;3.75;;;26.70;44.50;;;;;;10430284;28;20045;-58
2024/04/07 21:50:40;;;;;;;7.25;5.43;;;26.70;45.00;;;;;;10434274;28;20195;-57
2024/04/07 21:55:42;;;;;;;7.38;5.80;;;26.70;45.00;;;;;;10439368;28;20060;-56
2024/04/07 22:00:45;;;;;;;6.93;5.85;;;26.70;45.00;;;;;;10443133;28;20048;-52
2024/04/07 22:05:46;;;;;;;6.15;5.50;;;26.60;45.40;;;;;;10441712;28;20514;-53
2024/04/07 22:10:48;;;;;;;9.48;6.10;;;26.60;45.40;;;;;;10438964;28;20515;-52
2024/04/07 22:15:51;;;;;;;8.98;6.13;;;26.40;45.50;;;;;;10440338;28;20080;-50
2024/04/07 22:20:53;;;;;;;9.95;7.93;;;26.50;45.70;;;;;;10443386;28;20059;-56
2024/04/07 22:25:55;;;;;;;8.68;6.80;;;26.50;45.30;;;;;;10435663;28;20041;-52
2024/04/07 22:31:01;;;;;;;8.93;6.95;;;26.50;45.40;;;;;;10446068;28;20040;-51
2024/04/07 22:36:03;;;;;;;11.55;10.25;;;26.40;45.50;;;;;;10443004;28;20045;-54
2024/04/07 22:41:04;;;;;;;14.70;11.02;;;26.30;45.80;;;;;;10437564;28;20072;-55
2024/04/07 22:46:09;;;;;;;14.05;11.10;;;26.20;45.90;;;;;;10439609;28;20140;-54
2024/04/07 22:51:11;;;;;;;13.63;12.23;;;26.40;46.50;;;;;;10439595;28;20053;-53
2024/04/07 22:56:13;;;;;;;17.52;13.57;;;26.30;45.90;;;;;;10439677;28;20052;-57
2024/04/07 23:01:16;;;;;;;16.88;13.63;;;26.20;46.10;;;;;;10437458;28;20048;-58
2024/04/07 23:06:20;;;;;;;16.63;13.63;;;26.10;46.10;;;;;;10433635;28;20041;-56
2024/04/07 23:11:22;;;;;;;16.90;13.50;;;26.20;46.20;;;;;;10444816;28;20084;-54
2024/04/07 23:16:25;;;;;;;16.83;14.55;;;26.20;46.40;;;;;;10443740;28;20045;-53
2024/04/07 23:21:26;;;;;;;22.33;16.73;;;26.20;46.10;;;;;;10436957;28;20044;-54
2024/04/07 23:26:28;;;;;;;23.15;18.27;;;26.10;46.50;;;;;;10440263;28;20041;-53
2024/04/07 23:31:31;;;;;;;25.42;18.83;;;26.20;46.50;;;;;;10438758;28;20123;-56
2024/04/07 23:36:32;;;;;;;21.35;17.45;;;26.20;46.30;;;;;;10431943;28;20037;-55
2024/04/07 23:41:34;;;;;;;20.90;17.90;;;26.30;46.40;;;;;;10435262;28;20047;-55
2024/04/07 23:46:37;;;;;;;21.98;18.23;;;26.20;46.30;;;;;;10437878;28;20041;-52
2024/04/07 23:51:39;;;;;;;25.70;19.40;;;26.20;46.50;;;;;;10441194;28;20043;-56
2024/04/07 23:56:40;;;;;;;27.13;20.45;;;26.30;46.40;;;;;;10437778;28;20045;-55
